createdAt,value
2023-01-23T00:02:06.232Z,23.27
2023-01-23T00:04:32.847Z,21.85
2023-01-23T00:06:59.276Z,22.10
2023-01-23T00:09:25.770Z,22.75
2023-01-23T00:11:52.239Z,23.80
2023-01-23T00:14:18.642Z,21.02
2023-01-23T00:16:45.155Z,26.27
2023-01-23T00:19:11.631Z,24.45
2023-01-23T00:21:38.049Z,20.17
2023-01-23T00:24:05.229Z,25.05
2023-01-23T00:26:35.428Z,23.63
2023-01-23T00:29:02.365Z,19.52
2023-01-23T00:31:35.411Z,24.95
2023-01-23T00:34:05.496Z,25.42
2023-01-23T00:36:37.496Z,22.15
2023-01-23T00:39:14.391Z,24.48
2023-01-23T00:41:41.061Z,18.98
2023-01-23T00:44:07.755Z,23.10
2023-01-23T00:46:35.035Z,25.27
2023-01-23T00:49:01.561Z,21.83
2023-01-23T00:51:28.107Z,21.10
2023-01-23T00:53:55.291Z,25.52
2023-01-23T00:56:21.736Z,22.52
2023-01-23T00:58:48.322Z,22.80
2023-01-23T01:01:16.272Z,22.33
2023-01-23T01:03:43.700Z,21.63
2023-01-23T01:06:11.657Z,19.48
2023-01-23T01:08:38.159Z,21.83
2023-01-23T01:11:05.305Z,22.45
2023-01-23T01:13:32.112Z,22.20
2023-01-23T01:16:01.840Z,22.92
2023-01-23T01:18:29.769Z,22.25
2023-01-23T01:20:56.727Z,23.10
2023-01-23T01:23:23.295Z,24.92
2023-01-23T01:25:49.770Z,19.55
2023-01-23T01:28:16.204Z,21.00
2023-01-23T01:30:42.709Z,23.40
2023-01-23T01:33:09.164Z,22.25
2023-01-23T01:35:35.660Z,21.08
2023-01-23T01:38:02.037Z,21.65
2023-01-23T01:40:33.081Z,23.13
2023-01-23T01:43:08.451Z,24.10
2023-01-23T01:46:02.735Z,24.48
2023-01-23T01:48:40.460Z,22.77
2023-01-23T01:51:14.486Z,23.17
2023-01-23T01:53:41.641Z,24.40
2023-01-23T01:56:12.346Z,21.80
2023-01-23T01:58:41.150Z,24.63
2023-01-23T02:01:07.860Z,22.90
2023-01-23T02:03:35.076Z,21.42
2023-01-23T02:06:01.759Z,22.95
2023-01-23T02:08:39.595Z,24.23
2023-01-23T02:11:07.035Z,24.42
2023-01-23T02:13:39.724Z,23.50
2023-01-23T02:16:12.778Z,22.13
2023-01-23T02:18:44.690Z,24.52
2023-01-23T02:21:13.186Z,25.15
2023-01-23T02:26:22.277Z,23.30
2023-01-23T02:28:55.922Z,26.67
2023-01-23T02:31:23.219Z,27.35
2023-01-23T02:33:54.539Z,32.85
2023-01-23T02:36:24.162Z,27.42
2023-01-23T02:39:05.627Z,25.48
2023-01-23T02:41:41.244Z,25.27
2023-01-23T02:44:16.694Z,29.80
2023-01-23T02:46:43.343Z,28.20
2023-01-23T02:49:10.025Z,26.60
2023-01-23T02:51:36.811Z,26.85
2023-01-23T02:54:04.002Z,27.20
2023-01-23T02:56:30.426Z,27.45
2023-01-23T02:59:15.514Z,29.27
2023-01-23T03:01:42.162Z,26.85
2023-01-23T03:04:08.586Z,30.95
2023-01-23T03:06:37.592Z,28.23
2023-01-23T03:09:15.919Z,27.98
2023-01-23T03:11:44.223Z,27.10
2023-01-23T03:14:14.105Z,25.58
2023-01-23T03:16:42.809Z,28.52
2023-01-23T03:19:10.336Z,29.52
2023-01-23T03:21:40.496Z,28.45
2023-01-23T03:24:09.609Z,27.20
2023-01-23T03:26:39.803Z,29.27
2023-01-23T03:29:25.057Z,27.98
2023-01-23T03:31:52.146Z,25.98
2023-01-23T03:34:19.112Z,27.02
2023-01-23T03:36:45.585Z,28.23
2023-01-23T03:39:30.766Z,27.38
2023-01-23T03:41:57.261Z,28.02
2023-01-23T03:44:24.091Z,27.05
2023-01-23T03:46:52.002Z,27.90
2023-01-23T03:49:19.483Z,26.65
2023-01-23T03:51:46.047Z,27.48
2023-01-23T03:54:14.571Z,26.33
2023-01-23T03:59:09.513Z,28.30
2023-01-23T04:01:36.807Z,25.15
2023-01-23T04:04:03.904Z,25.50
2023-01-23T04:06:30.500Z,28.17
2023-01-23T04:08:58.254Z,26.58
2023-01-23T04:11:26.508Z,26.50
2023-01-23T04:13:54.187Z,23.95
2023-01-23T04:16:22.814Z,26.60
2023-01-23T04:18:50.963Z,26.90
2023-01-23T04:21:17.559Z,27.50
2023-01-23T04:23:44.010Z,30.13
2023-01-23T04:26:10.474Z,23.20
2023-01-23T04:28:36.986Z,26.15
2023-01-23T04:31:03.624Z,23.27
2023-01-23T04:33:30.212Z,30.45
2023-01-23T04:35:59.233Z,27.85
2023-01-23T04:38:27.523Z,27.63
2023-01-23T04:40:54.504Z,25.88
2023-01-23T04:43:20.938Z,28.38
2023-01-23T04:45:50.755Z,29.63
2023-01-23T04:48:17.420Z,26.75
2023-01-23T04:50:43.823Z,24.70
2023-01-23T04:53:10.542Z,28.30
2023-01-23T04:55:37.113Z,28.35
2023-01-23T04:58:03.746Z,29.98
2023-01-23T05:00:30.382Z,29.45
2023-01-23T05:02:57.467Z,32.40
2023-01-23T05:05:24.888Z,34.70
2023-01-23T05:07:51.671Z,29.45
2023-01-23T05:10:19.102Z,29.35
2023-01-23T05:12:45.888Z,28.35
2023-01-23T05:15:12.366Z,29.42
2023-01-23T05:17:39.057Z,33.53
2023-01-23T05:20:06.488Z,32.60
2023-01-23T05:22:33.618Z,32.78
2023-01-23T05:25:00.480Z,31.80
2023-01-23T05:27:26.922Z,34.50
2023-01-23T05:29:53.404Z,33.28
2023-01-23T05:32:19.816Z,29.05
2023-01-23T05:34:46.279Z,27.17
2023-01-23T05:37:12.729Z,31.80
2023-01-23T05:39:39.139Z,28.25
2023-01-23T05:42:05.750Z,31.83
2023-01-23T05:44:32.197Z,29.52
2023-01-23T05:46:58.631Z,27.40
2023-01-23T05:49:25.238Z,28.85
2023-01-23T05:51:51.644Z,29.52
2023-01-23T05:54:18.036Z,26.55
2023-01-23T05:56:44.436Z,24.30
2023-01-23T05:59:11.086Z,31.27
2023-01-23T06:01:37.635Z,24.92
2023-01-23T06:04:04.104Z,26.08
2023-01-23T06:06:30.534Z,29.15
2023-01-23T06:08:59.481Z,28.83
2023-01-23T06:11:25.876Z,29.88
2023-01-23T06:13:52.296Z,32.47
2023-01-23T06:16:18.849Z,29.70
2023-01-23T06:18:45.227Z,28.00
2023-01-23T06:21:11.683Z,27.88
2023-01-23T06:23:38.043Z,31.95
2023-01-23T06:26:05.524Z,24.23
2023-01-23T06:28:31.944Z,26.17
2023-01-23T06:31:03.917Z,25.00
2023-01-23T06:33:31.098Z,25.73
2023-01-23T06:36:02.554Z,31.25
2023-01-23T06:38:29.304Z,27.67
2023-01-23T06:40:56.366Z,33.25
2023-01-23T06:43:23.990Z,29.45
2023-01-23T06:45:50.976Z,27.25
2023-01-23T06:48:17.608Z,31.10
2023-01-23T06:50:44.951Z,28.80
2023-01-23T06:53:15.075Z,31.17
2023-01-23T06:55:41.496Z,29.55
2023-01-23T06:58:07.940Z,29.92
2023-01-23T07:00:34.438Z,30.23
2023-01-23T07:03:03.692Z,27.95
2023-01-23T07:05:31.597Z,30.90
2023-01-23T07:07:58.416Z,31.45
2023-01-23T07:10:26.271Z,26.45
2023-01-23T07:12:52.692Z,33.38
2023-01-23T07:15:19.277Z,30.48
2023-01-23T07:17:45.663Z,32.83
2023-01-23T07:20:12.471Z,28.13
2023-01-23T07:22:38.903Z,30.38
2023-01-23T07:25:05.991Z,28.35
2023-01-23T07:27:33.251Z,27.95
2023-01-23T07:29:59.702Z,32.40
2023-01-23T07:32:26.159Z,31.63
2023-01-23T07:34:53.185Z,29.98
2023-01-23T07:37:21.112Z,25.98
2023-01-23T07:39:47.539Z,31.15
2023-01-23T07:42:14.141Z,32.53
2023-01-23T07:44:40.533Z,28.80
2023-01-23T07:47:06.951Z,36.53
2023-01-23T07:49:33.506Z,32.63
2023-01-23T07:51:59.909Z,27.60
2023-01-23T07:54:26.330Z,28.33
2023-01-23T07:56:53.344Z,25.17
2023-01-23T07:59:19.884Z,25.77
2023-01-23T08:01:46.366Z,29.55
2023-01-23T08:04:12.978Z,25.15
2023-01-23T08:06:39.514Z,24.05
2023-01-23T08:09:06.179Z,22.08
2023-01-23T08:11:34.378Z,22.30
2023-01-23T08:14:00.990Z,27.27
2023-01-23T08:16:28.059Z,20.10
2023-01-23T08:18:54.577Z,22.58
2023-01-23T08:21:21.002Z,22.73
2023-01-23T08:23:48.133Z,18.60
2023-01-23T08:26:16.993Z,20.50
2023-01-23T08:28:45.213Z,23.58
2023-01-23T08:31:12.933Z,20.63
2023-01-23T08:33:39.949Z,19.90
2023-01-23T08:36:10.928Z,19.95
2023-01-23T08:38:37.641Z,19.95
2023-01-23T08:41:04.355Z,20.05
2023-01-23T08:43:31.251Z,21.25
2023-01-23T08:45:59.118Z,21.25
2023-01-23T08:48:27.124Z,18.23
2023-01-23T08:51:02.242Z,20.27
2023-01-23T08:56:00.074Z,19.95
2023-01-23T08:58:26.853Z,21.25
2023-01-23T09:00:53.573Z,20.02
2023-01-23T09:03:20.094Z,25.88
2023-01-23T09:05:46.498Z,24.33
2023-01-23T09:08:12.999Z,21.92
2023-01-23T09:10:39.565Z,27.38
2023-01-23T09:13:06.165Z,21.75
2023-01-23T09:15:32.585Z,22.33
2023-01-23T09:17:59.602Z,23.55
2023-01-23T09:20:26.689Z,21.90
2023-01-23T09:22:53.183Z,22.90
2023-01-23T09:25:19.739Z,26.73
2023-01-23T09:27:46.152Z,22.48
2023-01-23T09:30:13.938Z,21.85
2023-01-23T09:32:40.350Z,23.30
2023-01-23T09:35:07.233Z,23.48
2023-01-23T09:37:58.437Z,23.65
2023-01-23T09:40:30.586Z,21.80
2023-01-23T09:43:08.439Z,22.35
2023-01-23T09:45:34.981Z,22.15
2023-01-23T09:48:19.507Z,23.45
2023-01-23T09:51:05.330Z,22.95
2023-01-23T09:53:37.247Z,18.48
2023-01-23T09:56:12.210Z,24.52
2023-01-23T09:58:55.028Z,20.70
2023-01-23T10:01:21.810Z,19.13
2023-01-23T10:03:48.232Z,22.98
2023-01-23T10:06:25.026Z,27.13
2023-01-23T10:09:23.692Z,23.08
2023-01-23T10:12:06.612Z,22.98
2023-01-23T10:14:59.362Z,17.42
2023-01-23T10:17:29.867Z,20.10
2023-01-23T10:20:30.436Z,19.60
2023-01-23T10:23:13.888Z,21.52
2023-01-23T10:25:41.221Z,20.15
2023-01-23T10:28:35.093Z,18.95
2023-01-23T10:31:07.773Z,16.15
2023-01-23T10:33:49.488Z,18.10
2023-01-23T10:36:41.921Z,18.92
2023-01-23T10:39:20.134Z,17.25
2023-01-23T10:41:51.173Z,17.33
2023-01-23T10:44:19.730Z,17.95
2023-01-23T10:46:54.026Z,17.55
2023-01-23T10:49:46.319Z,18.73
2023-01-23T10:52:33.263Z,15.98
2023-01-23T10:55:00.762Z,16.45
2023-01-23T10:57:29.937Z,16.35
2023-01-23T11:00:04.259Z,14.38
2023-01-23T11:02:33.194Z,15.32
2023-01-23T11:05:00.314Z,15.77
2023-01-23T11:07:37.209Z,17.63
2023-01-23T11:10:09.640Z,16.27
2023-01-23T11:12:48.410Z,14.27
2023-01-23T11:15:21.473Z,15.75
2023-01-23T11:17:50.133Z,17.88
2023-01-23T11:20:42.766Z,16.30
2023-01-23T11:23:10.799Z,16.45
2023-01-23T11:25:44.797Z,15.35
2023-01-23T11:28:34.912Z,16.17
2023-01-23T11:31:15.048Z,15.73
2023-01-23T11:33:57.207Z,18.23
2023-01-23T11:36:30.417Z,16.92
2023-01-23T11:39:04.939Z,17.92
2023-01-23T11:41:34.778Z,17.23
2023-01-23T11:44:12.841Z,17.50
2023-01-23T11:47:15.283Z,16.45
2023-01-23T11:49:54.141Z,18.65
2023-01-23T11:52:32.592Z,14.88
2023-01-23T11:55:14.877Z,21.20
2023-01-23T11:57:59.637Z,18.60
2023-01-23T12:00:39.683Z,16.35
2023-01-23T12:03:30.968Z,18.13
2023-01-23T12:06:19.616Z,19.42
2023-01-23T12:09:01.983Z,20.52
2023-01-23T12:11:41.132Z,20.20
2023-01-23T12:14:17.327Z,19.20
2023-01-23T12:16:49.705Z,17.35
2023-01-23T12:19:29.661Z,16.75
2023-01-23T12:21:59.429Z,20.67
2023-01-23T12:24:25.809Z,16.55
2023-01-23T12:27:34.260Z,20.08
2023-01-23T12:30:12.846Z,16.35
2023-01-23T12:33:09.196Z,16.60
2023-01-23T12:36:11.133Z,19.17
2023-01-23T12:39:13.801Z,16.85
2023-01-23T12:41:46.242Z,18.27
2023-01-23T12:44:18.224Z,18.60
2023-01-23T12:46:56.966Z,20.75
2023-01-23T12:49:33.640Z,19.40
2023-01-23T12:52:05.643Z,19.33
2023-01-23T12:54:42.822Z,18.27
2023-01-23T12:57:12.501Z,19.40
2023-01-23T12:59:54.390Z,20.42
2023-01-23T13:02:40.424Z,17.42
2023-01-23T13:05:19.869Z,17.73
2023-01-23T13:08:19.080Z,23.15
2023-01-23T13:11:15.300Z,20.55
2023-01-23T13:13:43.158Z,20.60
2023-01-23T13:16:14.928Z,19.30
2023-01-23T13:19:11.580Z,19.02
2023-01-23T13:21:57.030Z,20.67
2023-01-23T13:24:49.202Z,19.08
2023-01-23T13:27:34.294Z,20.88
2023-01-23T13:30:02.278Z,17.13
2023-01-23T13:32:29.618Z,19.40
2023-01-23T13:34:56.330Z,20.10
2023-01-23T13:37:28.675Z,20.23
2023-01-23T13:40:13.758Z,20.13
2023-01-23T13:42:40.325Z,18.65
2023-01-23T13:45:27.527Z,18.02
2023-01-23T14:20:39.779Z,21.13
2023-01-23T14:23:18.183Z,16.77
2023-01-23T14:25:44.928Z,19.52
2023-01-23T14:28:16.840Z,19.35
2023-01-23T14:30:53.458Z,16.65
2023-01-23T14:33:19.958Z,17.63
2023-01-23T14:35:47.015Z,20.55
2023-01-23T14:38:22.730Z,19.10
2023-01-23T14:40:51.280Z,17.55
2023-01-23T14:43:21.882Z,19.58
2023-01-23T14:45:56.601Z,18.23
2023-01-23T14:48:23.101Z,23.85
2023-01-23T14:50:49.575Z,16.95
2023-01-23T14:53:16.967Z,21.13
2023-01-23T14:55:48.379Z,18.05
2023-01-23T14:58:22.947Z,21.23
2023-01-23T15:00:50.486Z,20.65
2023-01-23T15:03:40.292Z,20.70
2023-01-23T15:06:18.814Z,19.58
2023-01-23T15:08:45.609Z,18.65
2023-01-23T15:11:13.440Z,20.63
2023-01-23T15:13:43.761Z,21.35
2023-01-23T15:16:18.760Z,18.50
2023-01-23T15:21:27.318Z,23.75
2023-01-23T15:24:06.044Z,21.42
2023-01-23T15:26:35.529Z,19.40
2023-01-23T15:29:09.354Z,20.15
2023-01-23T15:31:41.653Z,22.95
2023-01-23T15:34:20.074Z,17.55
2023-01-23T15:37:20.381Z,19.05
2023-01-23T15:39:46.780Z,18.73
2023-01-23T15:42:13.120Z,23.70
2023-01-23T15:44:41.090Z,18.70
2023-01-23T15:47:07.694Z,18.48
2023-01-23T15:49:36.618Z,19.00
2023-01-23T15:52:18.464Z,17.75
2023-01-23T15:54:45.402Z,18.40
2023-01-23T15:57:15.194Z,18.92
2023-01-23T15:59:41.989Z,17.00
2023-01-23T16:02:29.700Z,17.77
2023-01-23T16:04:56.997Z,19.35
2023-01-23T16:07:32.325Z,17.63
2023-01-23T16:09:58.763Z,18.55
2023-01-23T16:12:28.772Z,18.70
2023-01-23T16:14:56.032Z,16.27
2023-01-23T16:17:23.275Z,18.58
2023-01-23T16:19:50.688Z,18.25
2023-01-23T16:22:25.172Z,17.27
2023-01-23T16:24:52.032Z,19.50
2023-01-23T16:27:20.456Z,21.67
2023-01-23T16:29:49.317Z,19.83
2023-01-23T16:32:16.232Z,15.93
2023-01-23T16:34:42.735Z,19.42
2023-01-23T16:37:15.282Z,17.83
2023-01-23T16:39:43.099Z,19.08
2023-01-23T16:42:22.369Z,19.98
2023-01-23T16:44:49.343Z,19.08
2023-01-23T16:47:15.849Z,20.88
2023-01-23T16:49:51.923Z,21.60
2023-01-23T16:52:23.832Z,17.50
2023-01-23T16:54:52.511Z,29.08
2023-01-23T16:57:20.374Z,21.05
2023-01-23T16:59:49.885Z,22.38
2023-01-23T17:02:28.799Z,19.42
2023-01-23T17:04:55.237Z,22.83
2023-01-23T17:07:21.763Z,21.27
2023-01-23T17:09:49.405Z,24.50
2023-01-23T17:12:21.023Z,20.90
2023-01-23T17:14:49.507Z,18.02
2023-01-23T17:17:23.258Z,19.55
2023-01-23T17:19:49.681Z,22.10
2023-01-23T17:22:23.206Z,22.52
2023-01-23T17:24:49.709Z,19.33
2023-01-23T17:27:16.268Z,20.58
2023-01-23T17:29:42.693Z,21.27
2023-01-23T17:32:26.860Z,19.70
2023-01-23T17:34:54.013Z,19.30
2023-01-23T17:37:22.751Z,20.35
2023-01-23T17:39:49.323Z,20.08
2023-01-23T17:42:16.066Z,24.75
2023-01-23T17:44:42.495Z,20.80
2023-01-23T17:47:12.897Z,21.42
2023-01-23T17:49:40.338Z,21.77
2023-01-23T17:52:11.181Z,21.08
2023-01-23T17:54:37.570Z,20.88
2023-01-23T17:57:04.831Z,25.25
2023-01-23T17:59:32.247Z,23.52
2023-01-23T18:01:58.812Z,20.88
2023-01-23T18:04:25.586Z,23.02
2023-01-23T18:06:52.461Z,22.25
2023-01-23T18:09:19.285Z,20.90
2023-01-23T18:11:52.012Z,21.52
2023-01-23T18:14:37.727Z,22.75
2023-01-23T18:17:20.949Z,23.75
2023-01-23T18:19:47.826Z,22.63
2023-01-23T18:22:14.497Z,25.15
2023-01-23T18:24:41.097Z,27.50
2023-01-23T18:27:20.482Z,23.67
2023-01-23T18:30:09.855Z,26.05
2023-01-23T18:32:57.138Z,22.95
2023-01-23T18:35:32.112Z,26.27
2023-01-23T18:38:32.461Z,26.02
2023-01-23T18:41:04.803Z,27.30
2023-01-23T18:43:38.572Z,21.30
2023-01-23T18:46:20.393Z,23.55
2023-01-23T18:48:49.281Z,21.50
2023-01-23T18:51:49.714Z,20.55
2023-01-23T18:54:24.764Z,23.60
2023-01-23T18:57:07.450Z,23.88
2023-01-23T18:59:54.115Z,22.52
2023-01-23T19:02:45.080Z,22.35
2023-01-23T19:05:11.406Z,24.58
2023-01-23T19:07:38.251Z,22.85
2023-01-23T19:10:24.731Z,24.38
2023-01-23T19:13:09.336Z,24.52
2023-01-23T19:15:59.641Z,24.40
2023-01-23T19:18:47.281Z,23.65
2023-01-23T19:21:16.891Z,23.33
2023-01-23T19:24:00.853Z,29.52
2023-01-23T19:26:33.127Z,26.52
2023-01-23T19:29:11.667Z,29.90
2023-01-23T19:32:03.104Z,25.33
2023-01-23T19:34:31.059Z,25.40
2023-01-23T19:36:57.549Z,24.65
2023-01-23T19:39:23.980Z,24.92
2023-01-23T19:41:50.653Z,23.65
2023-01-23T19:44:19.281Z,26.67
2023-01-23T19:46:46.147Z,24.70
2023-01-23T19:49:13.799Z,26.77
2023-01-23T19:51:40.926Z,26.50
2023-01-23T19:54:12.535Z,26.73
2023-01-23T19:56:39.474Z,23.42
2023-01-23T19:59:06.797Z,24.92
2023-01-23T20:01:46.694Z,27.08
2023-01-23T20:04:16.083Z,21.85
2023-01-23T20:06:45.449Z,27.00
2023-01-23T20:09:14.524Z,27.13
2023-01-23T20:11:41.877Z,27.13
2023-01-23T20:14:08.343Z,25.02
2023-01-23T20:16:34.815Z,27.27
2023-01-23T20:19:01.503Z,25.88
2023-01-23T20:21:27.911Z,26.17
2023-01-23T20:23:54.346Z,25.02
2023-01-23T20:26:21.604Z,25.63
2023-01-23T20:28:49.674Z,25.02
2023-01-23T20:31:16.362Z,23.88
2023-01-23T20:33:43.042Z,25.52
2023-01-23T20:36:13.314Z,25.10
2023-01-23T20:38:40.518Z,27.20
2023-01-23T20:41:18.896Z,24.20
2023-01-23T20:43:46.045Z,25.48
2023-01-23T20:46:14.387Z,30.27
2023-01-23T20:51:11.337Z,27.60
2023-01-23T20:53:39.789Z,24.60
2023-01-23T20:56:20.552Z,23.38
2023-01-23T20:59:08.091Z,22.55
2023-01-23T21:01:55.990Z,22.70
2023-01-23T21:04:24.182Z,25.08
2023-01-23T21:06:50.772Z,25.55
2023-01-23T21:09:17.497Z,27.27
2023-01-23T21:11:44.066Z,26.92
2023-01-23T21:14:10.435Z,26.08
2023-01-23T21:16:36.953Z,25.98
2023-01-23T21:19:03.628Z,26.00
2023-01-23T21:21:30.315Z,24.70
2023-01-23T21:23:56.880Z,26.77
2023-01-23T21:26:25.865Z,23.23
2023-01-23T21:28:54.280Z,26.27
2023-01-23T21:36:19.025Z,26.45
2023-01-23T21:38:45.602Z,25.58
2023-01-23T21:41:12.185Z,26.38
2023-01-23T21:43:38.605Z,24.73
2023-01-23T21:46:05.476Z,26.38
2023-01-23T21:48:33.019Z,24.33
2023-01-23T21:51:12.217Z,26.70
2023-01-23T21:53:40.481Z,27.70
2023-01-23T21:56:08.781Z,24.55
2023-01-23T22:01:25.969Z,25.80
2023-01-23T22:03:53.238Z,24.08
2023-01-23T22:06:19.704Z,25.88
2023-01-23T22:08:46.204Z,26.73
2023-01-23T22:11:13.124Z,32.92
2023-01-23T22:13:39.754Z,25.60
2023-01-23T22:16:06.618Z,28.40
2023-01-23T22:18:34.227Z,24.38
2023-01-23T22:21:03.339Z,23.90
2023-01-23T22:23:30.693Z,29.25
2023-01-23T22:25:59.578Z,25.83
2023-01-23T22:28:26.276Z,26.70
2023-01-23T22:30:52.757Z,26.23
2023-01-23T22:33:19.384Z,29.40
2023-01-23T22:35:46.119Z,27.63
2023-01-23T22:38:14.209Z,27.60
2023-01-23T22:40:41.171Z,25.92
2023-01-23T22:43:08.913Z,27.98
2023-01-23T22:45:35.468Z,28.58
2023-01-23T22:48:02.035Z,27.85
2023-01-23T22:50:29.571Z,26.45
2023-01-23T22:52:56.168Z,31.35
2023-01-23T22:55:22.856Z,27.23
2023-01-23T22:57:52.837Z,28.25
2023-01-23T23:00:19.560Z,30.27
2023-01-23T23:02:46.101Z,28.02
2023-01-23T23:05:12.613Z,27.50
2023-01-23T23:07:39.057Z,33.60
2023-01-23T23:10:07.704Z,25.35
2023-01-23T23:12:34.488Z,29.90
2023-01-23T23:15:00.975Z,30.40
2023-01-23T23:17:29.002Z,28.05
2023-01-23T23:19:55.500Z,32.92
2023-01-23T23:22:21.982Z,31.83
2023-01-23T23:24:48.379Z,27.42
2023-01-23T23:27:14.920Z,28.52
2023-01-23T23:29:41.328Z,26.80
2023-01-23T23:32:07.874Z,29.23
2023-01-23T23:34:36.224Z,29.80
2023-01-23T23:37:03.616Z,25.63
2023-01-23T23:39:30.082Z,29.65
2023-01-23T23:41:56.643Z,30.73
2023-01-23T23:44:23.060Z,34.53
2023-01-23T23:46:49.592Z,28.83
2023-01-23T23:49:16.080Z,28.60
2023-01-23T23:51:42.498Z,28.00
2023-01-23T23:54:09.051Z,30.35
2023-01-23T23:56:35.421Z,27.33
2023-01-23T23:59:02.435Z,28.20
